sensor_id;sensor_type;location;lat;lon;timestamp;pressure;altitude;pressure_sealevel;temperature;humidity
50368;BME280;36281;34.132;-118.018;2023-04-07T00:00:48;99991.72;;;24.89;16.55
50368;BME280;36281;34.132;-118.018;2023-04-07T00:03:17;100001.06;;;24.96;16.60
50368;BME280;36281;34.132;-118.018;2023-04-07T00:05:48;99998.66;;;24.81;16.74
50368;BME280;36281;34.132;-118.018;2023-04-07T00:08:17;100006.50;;;24.83;16.40
50368;BME280;36281;34.132;-118.018;2023-04-07T00:10:46;100009.59;;;24.76;15.75
50368;BME280;36281;34.132;-118.018;2023-04-07T00:13:15;100016.13;;;24.75;16.47
50368;BME280;36281;34.132;-118.018;2023-04-07T00:15:44;100011.59;;;24.70;16.09
50368;BME280;36281;34.132;-118.018;2023-04-07T00:18:14;100016.94;;;24.62;16.05
50368;BME280;36281;34.132;-118.018;2023-04-07T00:20:43;100016.84;;;24.53;16.68
50368;BME280;36281;34.132;-118.018;2023-04-07T00:23:13;100002.78;;;24.37;16.59
50368;BME280;36281;34.132;-118.018;2023-04-07T00:25:43;100015.66;;;24.27;16.39
50368;BME280;36281;34.132;-118.018;2023-04-07T00:28:12;100017.88;;;24.24;17.22
50368;BME280;36281;34.132;-118.018;2023-04-07T00:30:41;100010.16;;;24.18;16.50
50368;BME280;36281;34.132;-118.018;2023-04-07T00:33:10;100012.63;;;24.01;16.46
50368;BME280;36281;34.132;-118.018;2023-04-07T00:35:39;100025.94;;;23.97;16.24
50368;BME280;36281;34.132;-118.018;2023-04-07T00:38:09;100028.66;;;23.97;15.78
50368;BME280;36281;34.132;-118.018;2023-04-07T00:40:39;100030.94;;;23.90;16.27
50368;BME280;36281;34.132;-118.018;2023-04-07T00:43:08;100037.53;;;23.84;16.39
50368;BME280;36281;34.132;-118.018;2023-04-07T00:45:37;100031.66;;;23.77;16.33
50368;BME280;36281;34.132;-118.018;2023-04-07T00:48:06;100038.94;;;23.62;15.64
50368;BME280;36281;34.132;-118.018;2023-04-07T00:50:35;100028.63;;;23.45;15.72
50368;BME280;36281;34.132;-118.018;2023-04-07T00:53:05;100045.72;;;23.41;15.73
50368;BME280;36281;34.132;-118.018;2023-04-07T00:55:35;100046.59;;;23.36;15.68
50368;BME280;36281;34.132;-118.018;2023-04-07T00:58:05;100054.56;;;23.28;16.31
50368;BME280;36281;34.132;-118.018;2023-04-07T01:00:39;100057.91;;;23.19;15.95
50368;BME280;36281;34.132;-118.018;2023-04-07T01:03:17;100056.44;;;23.08;15.86
50368;BME280;36281;34.132;-118.018;2023-04-07T01:05:53;100052.47;;;23.01;16.38
50368;BME280;36281;34.132;-118.018;2023-04-07T01:08:28;100048.28;;;22.89;16.49
50368;BME280;36281;34.132;-118.018;2023-04-07T01:11:04;100057.78;;;22.82;16.08
50368;BME280;36281;34.132;-118.018;2023-04-07T01:13:43;100061.72;;;22.70;16.13
50368;BME280;36281;34.132;-118.018;2023-04-07T01:16:19;100043.59;;;22.47;16.10
50368;BME280;36281;34.132;-118.018;2023-04-07T01:18:53;100065.78;;;22.44;15.91
50368;BME280;36281;34.132;-118.018;2023-04-07T01:21:26;100067.00;;;22.28;15.45
50368;BME280;36281;34.132;-118.018;2023-04-07T01:24:10;100058.53;;;22.05;15.62
50368;BME280;36281;34.132;-118.018;2023-04-07T01:26:46;100083.13;;;22.04;16.10
50368;BME280;36281;34.132;-118.018;2023-04-07T01:29:33;100082.94;;;21.90;15.95
50368;BME280;36281;34.132;-118.018;2023-04-07T01:32:05;100061.53;;;21.70;16.42
50368;BME280;36281;34.132;-118.018;2023-04-07T01:34:38;100077.13;;;21.73;16.29
50368;BME280;36281;34.132;-118.018;2023-04-07T01:37:09;100070.19;;;21.61;16.68
50368;BME280;36281;34.132;-118.018;2023-04-07T01:39:39;100073.00;;;21.46;16.50
50368;BME280;36281;34.132;-118.018;2023-04-07T01:42:08;100082.19;;;21.40;16.57
50368;BME280;36281;34.132;-118.018;2023-04-07T01:44:40;100078.97;;;21.28;16.79
50368;BME280;36281;34.132;-118.018;2023-04-07T01:47:11;100075.78;;;21.21;16.89
50368;BME280;36281;34.132;-118.018;2023-04-07T01:49:40;100078.00;;;21.13;17.00
50368;BME280;36281;34.132;-118.018;2023-04-07T01:52:10;100076.16;;;21.04;16.93
50368;BME280;36281;34.132;-118.018;2023-04-07T01:54:39;100071.84;;;20.98;17.08
50368;BME280;36281;34.132;-118.018;2023-04-07T01:57:08;100076.22;;;20.88;17.27
50368;BME280;36281;34.132;-118.018;2023-04-07T01:59:39;100072.97;;;20.81;17.37
50368;BME280;36281;34.132;-118.018;2023-04-07T02:02:08;100082.97;;;20.76;17.81
50368;BME280;36281;34.132;-118.018;2023-04-07T02:04:44;100082.72;;;20.67;18.30
50368;BME280;36281;34.132;-118.018;2023-04-07T02:07:19;100085.72;;;20.55;18.55
50368;BME280;36281;34.132;-118.018;2023-04-07T02:09:51;100084.34;;;20.48;18.28
50368;BME280;36281;34.132;-118.018;2023-04-07T02:12:26;100085.69;;;20.40;18.46
50368;BME280;36281;34.132;-118.018;2023-04-07T02:14:58;100078.44;;;20.30;18.92
50368;BME280;36281;34.132;-118.018;2023-04-07T02:17:29;100087.84;;;20.23;18.97
50368;BME280;36281;34.132;-118.018;2023-04-07T02:20:03;100089.75;;;20.17;19.99
50368;BME280;36281;34.132;-118.018;2023-04-07T02:22:33;100084.09;;;20.08;24.09
50368;BME280;36281;34.132;-118.018;2023-04-07T02:25:20;100093.78;;;19.99;24.10
50368;BME280;36281;34.132;-118.018;2023-04-07T02:27:49;100093.50;;;19.91;22.51
50368;BME280;36281;34.132;-118.018;2023-04-07T02:30:20;100097.28;;;19.79;22.00
50368;BME280;36281;34.132;-118.018;2023-04-07T02:32:49;100094.81;;;19.73;21.50
50368;BME280;36281;34.132;-118.018;2023-04-07T02:35:18;100097.22;;;19.64;22.03
50368;BME280;36281;34.132;-118.018;2023-04-07T02:37:48;100091.53;;;19.50;22.42
50368;BME280;36281;34.132;-118.018;2023-04-07T02:40:18;100100.09;;;19.47;22.49
50368;BME280;36281;34.132;-118.018;2023-04-07T02:42:47;100097.94;;;19.39;23.15
50368;BME280;36281;34.132;-118.018;2023-04-07T02:45:16;100109.47;;;19.29;23.59
50368;BME280;36281;34.132;-118.018;2023-04-07T02:47:46;100100.53;;;19.19;23.96
50368;BME280;36281;34.132;-118.018;2023-04-07T02:50:16;100102.41;;;19.13;23.41
50368;BME280;36281;34.132;-118.018;2023-04-07T02:52:45;100096.69;;;18.99;24.01
50368;BME280;36281;34.132;-118.018;2023-04-07T02:55:14;100092.34;;;18.88;23.58
50368;BME280;36281;34.132;-118.018;2023-04-07T02:57:43;100101.22;;;18.89;24.17
50368;BME280;36281;34.132;-118.018;2023-04-07T03:00:14;100101.75;;;18.85;24.19
50368;BME280;36281;34.132;-118.018;2023-04-07T03:02:44;100104.41;;;18.80;24.04
50368;BME280;36281;34.132;-118.018;2023-04-07T03:05:15;100112.66;;;18.74;25.00
50368;BME280;36281;34.132;-118.018;2023-04-07T03:07:44;100093.75;;;18.53;24.57
50368;BME280;36281;34.132;-118.018;2023-04-07T03:10:13;100106.06;;;18.54;25.57
50368;BME280;36281;34.132;-118.018;2023-04-07T03:12:42;100112.47;;;18.48;26.12
50368;BME280;36281;34.132;-118.018;2023-04-07T03:15:11;100119.66;;;18.38;27.03
50368;BME280;36281;34.132;-118.018;2023-04-07T03:17:40;100123.34;;;18.31;27.49
50368;BME280;36281;34.132;-118.018;2023-04-07T03:20:10;100125.97;;;18.21;27.39
50368;BME280;36281;34.132;-118.018;2023-04-07T03:22:41;100126.38;;;18.08;28.25
50368;BME280;36281;34.132;-118.018;2023-04-07T03:25:12;100132.72;;;17.97;28.78
50368;BME280;36281;34.132;-118.018;2023-04-07T03:27:41;100132.31;;;17.83;29.54
50368;BME280;36281;34.132;-118.018;2023-04-07T03:30:11;100125.69;;;17.69;30.77
50368;BME280;36281;34.132;-118.018;2023-04-07T03:32:42;100133.63;;;17.58;30.68
50368;BME280;36281;34.132;-118.018;2023-04-07T03:35:11;100137.31;;;17.52;30.47
50368;BME280;36281;34.132;-118.018;2023-04-07T03:37:42;100136.63;;;17.40;30.76
50368;BME280;36281;34.132;-118.018;2023-04-07T03:40:11;100137.22;;;17.25;30.50
50368;BME280;36281;34.132;-118.018;2023-04-07T03:42:40;100110.66;;;16.97;31.63
50368;BME280;36281;34.132;-118.018;2023-04-07T03:45:10;100138.28;;;17.02;30.83
50368;BME280;36281;34.132;-118.018;2023-04-07T03:47:39;100132.81;;;16.92;31.75
50368;BME280;36281;34.132;-118.018;2023-04-07T03:50:09;100141.75;;;16.81;31.38
50368;BME280;36281;34.132;-118.018;2023-04-07T03:52:38;100150.75;;;16.75;32.37
50368;BME280;36281;34.132;-118.018;2023-04-07T03:55:10;100137.09;;;16.60;32.96
50368;BME280;36281;34.132;-118.018;2023-04-07T03:57:39;100153.75;;;16.62;33.17
50368;BME280;36281;34.132;-118.018;2023-04-07T04:00:09;100146.91;;;16.54;33.79
50368;BME280;36281;34.132;-118.018;2023-04-07T04:02:38;100147.31;;;16.46;33.84
50368;BME280;36281;34.132;-118.018;2023-04-07T04:05:07;100145.72;;;16.28;34.20
50368;BME280;36281;34.132;-118.018;2023-04-07T04:07:39;100166.34;;;16.16;34.63
50368;BME280;36281;34.132;-118.018;2023-04-07T04:10:10;100169.06;;;16.04;35.24
50368;BME280;36281;34.132;-118.018;2023-04-07T04:12:40;100153.59;;;15.89;35.09
50368;BME280;36281;34.132;-118.018;2023-04-07T04:15:10;100156.34;;;15.94;35.26
50368;BME280;36281;34.132;-118.018;2023-04-07T04:17:39;100170.06;;;15.86;35.32
50368;BME280;36281;34.132;-118.018;2023-04-07T04:20:09;100161.50;;;15.84;35.11
50368;BME280;36281;34.132;-118.018;2023-04-07T04:22:38;100170.94;;;15.75;35.28
50368;BME280;36281;34.132;-118.018;2023-04-07T04:25:10;100175.97;;;15.71;36.25
50368;BME280;36281;34.132;-118.018;2023-04-07T04:27:39;100184.69;;;15.67;36.51
50368;BME280;36281;34.132;-118.018;2023-04-07T04:30:08;100173.78;;;15.57;36.38
50368;BME280;36281;34.132;-118.018;2023-04-07T04:32:37;100169.84;;;15.47;36.33
50368;BME280;36281;34.132;-118.018;2023-04-07T04:35:07;100177.97;;;15.41;37.71
50368;BME280;36281;34.132;-118.018;2023-04-07T04:37:36;100177.06;;;15.35;37.42
50368;BME280;36281;34.132;-118.018;2023-04-07T04:40:06;100169.44;;;15.27;37.96
50368;BME280;36281;34.132;-118.018;2023-04-07T04:42:38;100180.31;;;15.25;37.58
50368;BME280;36281;34.132;-118.018;2023-04-07T04:45:08;100181.97;;;15.15;38.46
50368;BME280;36281;34.132;-118.018;2023-04-07T04:47:37;100183.34;;;15.06;39.14
50368;BME280;36281;34.132;-118.018;2023-04-07T04:50:07;100182.19;;;15.02;39.16
50368;BME280;36281;34.132;-118.018;2023-04-07T04:52:36;100189.53;;;14.94;39.69
50368;BME280;36281;34.132;-118.018;2023-04-07T04:55:07;100179.91;;;14.93;39.10
50368;BME280;36281;34.132;-118.018;2023-04-07T04:57:38;100184.19;;;14.94;39.22
50368;BME280;36281;34.132;-118.018;2023-04-07T05:00:08;100193.34;;;14.87;39.39
50368;BME280;36281;34.132;-118.018;2023-04-07T05:02:38;100194.25;;;14.81;39.13
50368;BME280;36281;34.132;-118.018;2023-04-07T05:05:08;100189.06;;;14.74;39.68
50368;BME280;36281;34.132;-118.018;2023-04-07T05:07:37;100196.25;;;14.73;40.19
50368;BME280;36281;34.132;-118.018;2023-04-07T05:10:08;100193.81;;;14.72;40.24
50368;BME280;36281;34.132;-118.018;2023-04-07T05:12:39;100193.91;;;14.65;40.30
50368;BME280;36281;34.132;-118.018;2023-04-07T05:15:08;100203.19;;;14.63;41.24
50368;BME280;36281;34.132;-118.018;2023-04-07T05:17:38;100189.84;;;14.63;41.37
50368;BME280;36281;34.132;-118.018;2023-04-07T05:20:08;100200.59;;;14.56;41.25
50368;BME280;36281;34.132;-118.018;2023-04-07T05:22:38;100206.19;;;14.55;41.76
50368;BME280;36281;34.132;-118.018;2023-04-07T05:25:08;100202.34;;;14.51;42.09
50368;BME280;36281;34.132;-118.018;2023-04-07T05:27:39;100200.00;;;14.42;42.51
50368;BME280;36281;34.132;-118.018;2023-04-07T05:30:09;100208.88;;;14.36;43.63
50368;BME280;36281;34.132;-118.018;2023-04-07T05:32:38;100179.19;;;14.21;43.47
50368;BME280;36281;34.132;-118.018;2023-04-07T05:35:08;100183.00;;;14.13;43.29
50368;BME280;36281;34.132;-118.018;2023-04-07T05:37:37;100199.13;;;14.18;43.78
50368;BME280;36281;34.132;-118.018;2023-04-07T05:40:07;100187.72;;;14.11;43.71
50368;BME280;36281;34.132;-118.018;2023-04-07T05:42:38;100164.16;;;13.96;44.46
50368;BME280;36281;34.132;-118.018;2023-04-07T05:45:08;100184.06;;;14.12;44.27
50368;BME280;36281;34.132;-118.018;2023-04-07T05:47:38;100183.44;;;14.10;44.33
50368;BME280;36281;34.132;-118.018;2023-04-07T05:50:07;100176.00;;;14.01;43.88
50368;BME280;36281;34.132;-118.018;2023-04-07T05:52:37;100172.75;;;13.99;44.63
50368;BME280;36281;34.132;-118.018;2023-04-07T05:55:07;100176.69;;;13.96;45.24
50368;BME280;36281;34.132;-118.018;2023-04-07T05:57:36;100170.16;;;13.92;44.55
50368;BME280;36281;34.132;-118.018;2023-04-07T06:00:08;100165.31;;;13.89;44.77
50368;BME280;36281;34.132;-118.018;2023-04-07T06:02:38;100161.34;;;13.80;45.17
50368;BME280;36281;34.132;-118.018;2023-04-07T06:05:08;100163.19;;;13.79;45.43
50368;BME280;36281;34.132;-118.018;2023-04-07T06:07:37;100163.19;;;13.79;45.39
50368;BME280;36281;34.132;-118.018;2023-04-07T06:10:07;100171.63;;;13.76;45.88
50368;BME280;36281;34.132;-118.018;2023-04-07T06:12:36;100170.31;;;13.67;45.96
50368;BME280;36281;34.132;-118.018;2023-04-07T06:15:08;100164.63;;;13.63;45.82
50368;BME280;36281;34.132;-118.018;2023-04-07T06:17:37;100170.81;;;13.57;46.34
50368;BME280;36281;34.132;-118.018;2023-04-07T06:20:07;100172.34;;;13.53;46.52
50368;BME280;36281;34.132;-118.018;2023-04-07T06:22:36;100176.72;;;13.48;46.43
50368;BME280;36281;34.132;-118.018;2023-04-07T06:25:06;100169.59;;;13.41;46.98
50368;BME280;36281;34.132;-118.018;2023-04-07T06:27:35;100181.03;;;13.42;46.35
50368;BME280;36281;34.132;-118.018;2023-04-07T06:30:07;100186.59;;;13.40;45.91
50368;BME280;36281;34.132;-118.018;2023-04-07T06:32:36;100183.78;;;13.35;46.15
50368;BME280;36281;34.132;-118.018;2023-04-07T06:35:06;100187.50;;;13.34;46.89
50368;BME280;36281;34.132;-118.018;2023-04-07T06:37:36;100182.59;;;13.31;46.40
50368;BME280;36281;34.132;-118.018;2023-04-07T06:40:07;100188.72;;;13.32;46.62
50368;BME280;36281;34.132;-118.018;2023-04-07T06:42:36;100190.44;;;13.26;46.92
50368;BME280;36281;34.132;-118.018;2023-04-07T06:45:09;100166.47;;;13.08;46.80
50368;BME280;36281;34.132;-118.018;2023-04-07T06:47:38;100195.00;;;13.19;46.94
50368;BME280;36281;34.132;-118.018;2023-04-07T06:50:08;100186.41;;;13.17;46.83
50368;BME280;36281;34.132;-118.018;2023-04-07T06:52:37;100192.38;;;13.12;47.80
50368;BME280;36281;34.132;-118.018;2023-04-07T06:55:07;100207.38;;;13.07;48.11
50368;BME280;36281;34.132;-118.018;2023-04-07T06:57:36;100197.63;;;13.01;48.02
50368;BME280;36281;34.132;-118.018;2023-04-07T07:00:06;100200.69;;;12.98;48.39
50368;BME280;36281;34.132;-118.018;2023-04-07T07:02:38;100200.53;;;12.92;48.13
50368;BME280;36281;34.132;-118.018;2023-04-07T07:05:07;100207.94;;;12.90;48.19
50368;BME280;36281;34.132;-118.018;2023-04-07T07:07:36;100213.25;;;12.90;47.72
50368;BME280;36281;34.132;-118.018;2023-04-07T07:10:07;100216.94;;;12.89;48.49
50368;BME280;36281;34.132;-118.018;2023-04-07T07:12:37;100222.50;;;12.88;48.98
50368;BME280;36281;34.132;-118.018;2023-04-07T07:15:07;100225.97;;;12.88;48.69
50368;BME280;36281;34.132;-118.018;2023-04-07T07:17:37;100224.16;;;12.82;49.02
50368;BME280;36281;34.132;-118.018;2023-04-07T07:20:08;100226.38;;;12.85;49.31
50368;BME280;36281;34.132;-118.018;2023-04-07T07:22:37;100222.31;;;12.83;48.78
50368;BME280;36281;34.132;-118.018;2023-04-07T07:25:06;100235.25;;;12.79;49.44
50368;BME280;36281;34.132;-118.018;2023-04-07T07:27:36;100229.91;;;12.79;49.65
50368;BME280;36281;34.132;-118.018;2023-04-07T07:30:06;100228.72;;;12.75;50.18
50368;BME280;36281;34.132;-118.018;2023-04-07T07:32:37;100221.81;;;12.67;50.07
50368;BME280;36281;34.132;-118.018;2023-04-07T07:35:06;100217.13;;;12.70;50.83
50368;BME280;36281;34.132;-118.018;2023-04-07T07:37:35;100220.59;;;12.70;50.38
50368;BME280;36281;34.132;-118.018;2023-04-07T07:40:05;100218.81;;;12.64;51.38
50368;BME280;36281;34.132;-118.018;2023-04-07T07:42:34;100213.31;;;12.59;50.22
50368;BME280;36281;34.132;-118.018;2023-04-07T07:45:04;100209.41;;;12.61;50.76
50368;BME280;36281;34.132;-118.018;2023-04-07T07:47:33;100201.03;;;12.58;51.31
50368;BME280;36281;34.132;-118.018;2023-04-07T07:50:07;100196.56;;;12.58;51.19
50368;BME280;36281;34.132;-118.018;2023-04-07T07:52:36;100194.56;;;12.54;50.77
50368;BME280;36281;34.132;-118.018;2023-04-07T07:55:05;100194.16;;;12.50;50.14
50368;BME280;36281;34.132;-118.018;2023-04-07T07:57:35;100190.09;;;12.48;50.42
50368;BME280;36281;34.132;-118.018;2023-04-07T08:00:05;100185.63;;;12.48;51.68
50368;BME280;36281;34.132;-118.018;2023-04-07T08:02:34;100193.19;;;12.45;50.97
50368;BME280;36281;34.132;-118.018;2023-04-07T08:05:06;100185.22;;;12.45;51.14
50368;BME280;36281;34.132;-118.018;2023-04-07T08:07:35;100184.59;;;12.42;51.28
50368;BME280;36281;34.132;-118.018;2023-04-07T08:10:06;100189.56;;;12.39;50.63
50368;BME280;36281;34.132;-118.018;2023-04-07T08:12:35;100194.47;;;12.35;50.28
50368;BME280;36281;34.132;-118.018;2023-04-07T08:15:05;100182.25;;;12.34;50.70
50368;BME280;36281;34.132;-118.018;2023-04-07T08:17:37;100193.28;;;12.31;51.06
50368;BME280;36281;34.132;-118.018;2023-04-07T08:20:09;100184.72;;;12.29;51.98
50368;BME280;36281;34.132;-118.018;2023-04-07T08:22:39;100192.53;;;12.24;51.72
50368;BME280;36281;34.132;-118.018;2023-04-07T08:25:08;100195.38;;;12.23;51.35
50368;BME280;36281;34.132;-118.018;2023-04-07T08:27:38;100185.38;;;12.18;51.92
50368;BME280;36281;34.132;-118.018;2023-04-07T08:30:08;100174.00;;;12.11;51.62
50368;BME280;36281;34.132;-118.018;2023-04-07T08:32:39;100182.38;;;12.14;52.01
50368;BME280;36281;34.132;-118.018;2023-04-07T08:35:10;100168.78;;;11.98;52.26
50368;BME280;36281;34.132;-118.018;2023-04-07T08:37:39;100184.22;;;12.07;52.64
50368;BME280;36281;34.132;-118.018;2023-04-07T08:40:11;100174.47;;;12.01;52.26
50368;BME280;36281;34.132;-118.018;2023-04-07T08:42:41;100186.94;;;12.01;51.46
50368;BME280;36281;34.132;-118.018;2023-04-07T08:45:12;100178.22;;;11.94;52.29
50368;BME280;36281;34.132;-118.018;2023-04-07T08:47:42;100186.13;;;12.00;51.94
50368;BME280;36281;34.132;-118.018;2023-04-07T08:50:16;100186.75;;;11.96;52.51
50368;BME280;36281;34.132;-118.018;2023-04-07T08:52:49;100177.19;;;11.88;53.13
50368;BME280;36281;34.132;-118.018;2023-04-07T08:55:18;100180.88;;;11.94;52.56
50368;BME280;36281;34.132;-118.018;2023-04-07T08:57:48;100178.84;;;11.89;53.25
50368;BME280;36281;34.132;-118.018;2023-04-07T09:00:17;100182.31;;;11.89;53.42
50368;BME280;36281;34.132;-118.018;2023-04-07T09:02:47;100181.69;;;11.87;53.50
50368;BME280;36281;34.132;-118.018;2023-04-07T09:05:18;100176.22;;;11.82;53.70
50368;BME280;36281;34.132;-118.018;2023-04-07T09:07:48;100175.78;;;11.85;53.58
50368;BME280;36281;34.132;-118.018;2023-04-07T09:10:17;100171.31;;;11.79;53.94
50368;BME280;36281;34.132;-118.018;2023-04-07T09:12:46;100174.16;;;11.78;54.90
50368;BME280;36281;34.132;-118.018;2023-04-07T09:15:15;100166.25;;;11.71;54.61
50368;BME280;36281;34.132;-118.018;2023-04-07T09:17:45;100173.16;;;11.79;54.50
50368;BME280;36281;34.132;-118.018;2023-04-07T09:20:14;100173.75;;;11.81;54.74
50368;BME280;36281;34.132;-118.018;2023-04-07T09:22:45;100169.25;;;11.81;54.95
50368;BME280;36281;34.132;-118.018;2023-04-07T09:25:16;100165.19;;;11.79;53.94
50368;BME280;36281;34.132;-118.018;2023-04-07T09:27:56;100158.03;;;11.79;54.18
50368;BME280;36281;34.132;-118.018;2023-04-07T09:30:26;100154.34;;;11.80;53.93
50368;BME280;36281;34.132;-118.018;2023-04-07T09:32:55;100129.94;;;11.65;54.36
50368;BME280;36281;34.132;-118.018;2023-04-07T09:35:25;100156.19;;;11.80;54.51
50368;BME280;36281;34.132;-118.018;2023-04-07T09:38:05;100154.56;;;11.79;55.15
50368;BME280;36281;34.132;-118.018;2023-04-07T09:40:35;100151.09;;;11.78;54.48
50368;BME280;36281;34.132;-118.018;2023-04-07T09:43:14;100156.19;;;11.80;55.23
50368;BME280;36281;34.132;-118.018;2023-04-07T09:45:44;100155.16;;;11.81;55.47
50368;BME280;36281;34.132;-118.018;2023-04-07T09:48:18;100151.91;;;11.85;56.20
50368;BME280;36281;34.132;-118.018;2023-04-07T09:50:48;100148.22;;;11.86;56.42
50368;BME280;36281;34.132;-118.018;2023-04-07T09:53:20;100144.34;;;11.82;55.50
50368;BME280;36281;34.132;-118.018;2023-04-07T09:55:57;100153.53;;;11.80;56.91
50368;BME280;36281;34.132;-118.018;2023-04-07T09:58:26;100147.44;;;11.79;56.87
50368;BME280;36281;34.132;-118.018;2023-04-07T10:00:55;100144.16;;;11.77;56.75
50368;BME280;36281;34.132;-118.018;2023-04-07T10:03:25;100141.31;;;11.79;56.92
50368;BME280;36281;34.132;-118.018;2023-04-07T10:05:55;100140.06;;;11.81;57.47
50368;BME280;36281;34.132;-118.018;2023-04-07T10:08:26;100149.06;;;11.80;57.55
50368;BME280;36281;34.132;-118.018;2023-04-07T10:10:57;100148.63;;;11.83;57.78
50368;BME280;36281;34.132;-118.018;2023-04-07T10:13:26;100148.63;;;11.83;57.79
50368;BME280;36281;34.132;-118.018;2023-04-07T10:15:57;100155.78;;;11.83;57.81
50368;BME280;36281;34.132;-118.018;2023-04-07T10:18:28;100153.13;;;11.83;58.14
50368;BME280;36281;34.132;-118.018;2023-04-07T10:21:01;100147.44;;;11.79;57.93
50368;BME280;36281;34.132;-118.018;2023-04-07T10:23:42;100165.19;;;11.79;58.60
50368;BME280;36281;34.132;-118.018;2023-04-07T10:26:18;100161.75;;;11.72;58.67
50368;BME280;36281;34.132;-118.018;2023-04-07T10:28:54;100177.84;;;11.77;58.33
50368;BME280;36281;34.132;-118.018;2023-04-07T10:31:26;100166.63;;;11.75;58.29
50368;BME280;36281;34.132;-118.018;2023-04-07T10:33:55;100167.44;;;11.75;58.73
50368;BME280;36281;34.132;-118.018;2023-04-07T10:36:25;100171.31;;;11.79;59.77
50368;BME280;36281;34.132;-118.018;2023-04-07T10:39:27;100172.31;;;11.78;60.16
50368;BME280;36281;34.132;-118.018;2023-04-07T10:41:56;100177.84;;;11.77;59.72
50368;BME280;36281;34.132;-118.018;2023-04-07T10:44:45;100174.97;;;11.78;59.29
50368;BME280;36281;34.132;-118.018;2023-04-07T10:47:15;100175.41;;;11.82;59.36
50368;BME280;36281;34.132;-118.018;2023-04-07T10:50:14;100175.78;;;11.85;58.48
50368;BME280;36281;34.132;-118.018;2023-04-07T10:52:45;100170.88;;;11.89;58.21
50368;BME280;36281;34.132;-118.018;2023-04-07T10:55:34;100175.97;;;11.90;58.23
50368;BME280;36281;34.132;-118.018;2023-04-07T10:58:17;100169.22;;;11.88;58.02
50368;BME280;36281;34.132;-118.018;2023-04-07T11:03:58;100167.38;;;11.95;58.02
50368;BME280;36281;34.132;-118.018;2023-04-07T11:06:29;100169.59;;;11.98;58.61
50368;BME280;36281;34.132;-118.018;2023-04-07T11:08:58;100173.88;;;11.99;58.69
50368;BME280;36281;34.132;-118.018;2023-04-07T11:11:40;100164.28;;;11.98;59.09
50368;BME280;36281;34.132;-118.018;2023-04-07T11:14:09;100164.94;;;11.94;58.50
50368;BME280;36281;34.132;-118.018;2023-04-07T11:16:42;100161.44;;;11.93;58.59
50368;BME280;36281;34.132;-118.018;2023-04-07T11:19:13;100136.41;;;11.82;59.31
50368;BME280;36281;34.132;-118.018;2023-04-07T11:21:42;100162.69;;;11.90;59.78
50368;BME280;36281;34.132;-118.018;2023-04-07T11:24:30;100150.88;;;11.86;59.73
50368;BME280;36281;34.132;-118.018;2023-04-07T11:27:01;100142.50;;;11.89;60.27
50368;BME280;36281;34.132;-118.018;2023-04-07T11:29:31;100150.63;;;11.95;60.20
50368;BME280;36281;34.132;-118.018;2023-04-07T11:32:01;100155.31;;;11.93;59.95
50368;BME280;36281;34.132;-118.018;2023-04-07T11:34:31;100171.88;;;11.95;59.96
50368;BME280;36281;34.132;-118.018;2023-04-07T11:37:18;100164.94;;;11.94;58.67
50368;BME280;36281;34.132;-118.018;2023-04-07T11:39:51;100175.94;;;11.97;58.33
50368;BME280;36281;34.132;-118.018;2023-04-07T11:42:33;100167.78;;;11.99;59.61
50368;BME280;36281;34.132;-118.018;2023-04-07T11:45:03;100159.81;;;11.99;59.93
50368;BME280;36281;34.132;-118.018;2023-04-07T11:47:35;100150.63;;;11.95;60.58
50368;BME280;36281;34.132;-118.018;2023-04-07T11:50:05;100151.22;;;11.97;60.51
50368;BME280;36281;34.132;-118.018;2023-04-07T11:52:41;100151.22;;;11.97;61.14
50368;BME280;36281;34.132;-118.018;2023-04-07T11:55:19;100144.72;;;11.93;61.76
50368;BME280;36281;34.132;-118.018;2023-04-07T11:57:53;100149.22;;;11.92;60.58
50368;BME280;36281;34.132;-118.018;2023-04-07T12:00:22;100156.97;;;11.94;60.73
50368;BME280;36281;34.132;-118.018;2023-04-07T12:02:51;100152.91;;;11.91;60.85
50368;BME280;36281;34.132;-118.018;2023-04-07T12:05:21;100128.22;;;11.77;61.46
50368;BME280;36281;34.132;-118.018;2023-04-07T12:07:53;100144.94;;;11.91;61.57
50368;BME280;36281;34.132;-118.018;2023-04-07T12:10:23;100146.78;;;11.90;61.91
50368;BME280;36281;34.132;-118.018;2023-04-07T12:12:57;100144.72;;;11.93;61.74
50368;BME280;36281;34.132;-118.018;2023-04-07T12:15:26;100153.53;;;11.86;60.96
50368;BME280;36281;34.132;-118.018;2023-04-07T12:17:55;100164.94;;;11.94;61.08
50368;BME280;36281;34.132;-118.018;2023-04-07T12:20:25;100160.63;;;11.93;61.49
50368;BME280;36281;34.132;-118.018;2023-04-07T12:22:54;100164.94;;;11.94;61.27
50368;BME280;36281;34.132;-118.018;2023-04-07T12:25:23;100165.34;;;11.90;60.27
50368;BME280;36281;34.132;-118.018;2023-04-07T12:27:53;100167.59;;;11.87;61.45
50368;BME280;36281;34.132;-118.018;2023-04-07T12:30:23;100166.56;;;11.88;61.37
50368;BME280;36281;34.132;-118.018;2023-04-07T12:32:53;100176.38;;;11.87;60.88
50368;BME280;36281;34.132;-118.018;2023-04-07T12:35:23;100172.31;;;11.85;62.18
50368;BME280;36281;34.132;-118.018;2023-04-07T12:37:52;100163.94;;;11.81;61.94
50368;BME280;36281;34.132;-118.018;2023-04-07T12:40:22;100167.84;;;11.85;61.77
50368;BME280;36281;34.132;-118.018;2023-04-07T12:42:51;100170.09;;;11.82;62.55